Time;durP1;ratioP1;P1;durP2;ratioP2;P2;SDS_P1;SDS_P2;PMS_P1;PMS_P2;Temp;Humidity;BMP_temperature;BMP_pressure;BME280_temperature;BME280_humidity;BME280_pressure;Samples;Min_cycle;Max_cycle;Signal;HPM_P1;HPM_P2
2023/07/31 00:00:57;;;;;;;8.60;3.10;;;;;;;15.63;79.11;96827.23;108844;1252;102235;-81
2023/07/31 00:03:29;;;;;;;5.80;2.80;;;;;;;15.62;78.97;96826.63;108805;1253;100589;-82
2023/07/31 00:05:57;;;;;;;4.30;2.90;;;;;;;15.59;78.80;96830.08;108857;1253;100208;-81
2023/07/31 00:08:24;;;;;;;9.30;3.70;;;;;;;15.50;78.72;96829.86;108764;1253;94157;-81
2023/07/31 00:10:53;;;;;;;5.10;2.90;;;;;;;15.44;78.80;96831.65;108787;1255;94521;-82
2023/07/31 00:13:21;;;;;;;5.20;2.80;;;;;;;15.41;78.97;96832.70;108801;1253;100926;-81
2023/07/31 00:15:49;;;;;;;6.60;3.00;;;;;;;15.41;79.05;96833.79;108806;1253;101439;-82
2023/07/31 00:18:16;;;;;;;3.10;2.80;;;;;;;15.39;79.08;96829.36;108757;1253;98651;-81
2023/07/31 00:20:44;;;;;;;5.70;2.80;;;;;;;15.30;79.03;96827.91;108722;1253;94465;-81
2023/07/31 00:23:12;;;;;;;5.10;3.30;;;;;;;15.29;79.40;96823.65;108809;1254;94637;-82
2023/07/31 00:25:40;;;;;;;4.40;2.90;;;;;;;15.31;79.39;96826.40;108825;1253;102478;-81
2023/07/31 00:28:08;;;;;;;5.80;3.40;;;;;;;15.33;79.60;96828.10;108793;1253;101646;-81
2023/07/31 00:30:35;;;;;;;9.30;3.10;;;;;;;15.33;79.43;96827.55;108752;1252;100305;-81
2023/07/31 00:33:03;;;;;;;8.70;3.00;;;;;;;15.30;79.72;96830.91;108763;1253;94309;-82
2023/07/31 00:35:31;;;;;;;9.10;3.40;;;;;;;15.30;79.64;96831.27;108834;1253;94470;-81
2023/07/31 00:37:59;;;;;;;5.10;3.10;;;;;;;15.26;79.33;96825.63;108829;1253;101308;-81
2023/07/31 00:40:27;;;;;;;5.30;3.20;;;;;;;15.19;79.36;96823.44;108747;1257;101594;-82
2023/07/31 00:42:55;;;;;;;4.20;2.70;;;;;;;15.19;79.55;96826.59;108793;1253;108910;-82
2023/07/31 00:45:26;;;;;;;2.60;2.40;;;;;;;15.21;79.77;96830.64;108778;1257;94279;-82
2023/07/31 00:47:54;;;;;;;5.60;3.10;;;;;;;15.16;79.63;96824.98;108779;1254;94163;-82
2023/07/31 00:50:25;;;;;;;3.90;3.30;;;;;;;15.09;79.71;96823.27;108759;1257;102279;-82
2023/07/31 00:52:53;;;;;;;6.40;3.80;;;;;;;15.09;79.93;96824.95;108803;1253;101546;-82
2023/07/31 00:55:21;;;;;;;7.50;3.20;;;;;;;15.12;80.16;96822.96;108776;1253;100183;-82
2023/07/31 00:57:50;;;;;;;4.90;3.40;;;;;;;15.16;80.14;96823.92;108725;1255;94241;-82
2023/07/31 01:00:17;;;;;;;4.60;3.00;;;;;;;15.17;80.11;96822.71;108866;1254;94678;-82
2023/07/31 01:02:45;;;;;;;4.30;2.60;;;;;;;15.18;79.97;96822.55;108810;1256;103182;-82
2023/07/31 01:05:13;;;;;;;3.90;3.10;;;;;;;15.19;79.96;96826.70;108787;1253;101662;-83
2023/07/31 01:07:57;;;;;;;4.50;3.10;;;;;;;15.13;79.83;96822.42;108816;1252;100207;-82
2023/07/31 01:10:30;;;;;;;5.70;3.30;;;;;;;15.10;80.21;96822.77;108770;1253;94173;-82
2023/07/31 01:12:59;;;;;;;5.90;3.10;;;;;;;15.10;80.43;96825.88;108819;1254;94660;-82
2023/07/31 01:15:27;;;;;;;3.70;2.70;;;;;;;15.07;80.38;96826.88;108814;1253;102303;-82
2023/07/31 01:17:54;;;;;;;5.40;3.10;;;;;;;15.02;80.49;96824.04;108835;1254;101642;-82
2023/07/31 01:20:24;;;;;;;7.30;2.60;;;;;;;15.03;80.63;96827.59;108745;1254;100154;-82
2023/07/31 01:22:52;;;;;;;4.50;2.80;;;;;;;15.06;80.82;96832.04;108780;1254;94778;-82
2023/07/31 01:25:54;;;;;;;5.80;3.20;;;;;;;15.09;80.79;96831.20;108824;1254;94607;-82
2023/07/31 01:28:28;;;;;;;5.50;2.60;;;;;;;15.08;80.92;96833.76;108810;1252;102440;-82
2023/07/31 01:31:01;;;;;;;5.10;2.70;;;;;;;15.11;81.09;96836.81;108788;1256;101656;-82
2023/07/31 01:33:29;;;;;;;4.00;3.10;;;;;;;15.15;81.15;96833.27;108782;1254;100144;-82
2023/07/31 01:35:57;;;;;;;3.20;2.50;;;;;;;15.18;81.24;96832.73;108761;1254;94504;-82
2023/07/31 01:38:25;;;;;;;4.10;3.30;;;;;;;15.20;80.99;96840.58;108747;1254;94605;-82
2023/07/31 01:40:54;;;;;;;4.00;2.90;;;;;;;15.23;81.05;96840.64;108765;1252;102102;-82
2023/07/31 01:43:21;;;;;;;5.70;3.60;;;;;;;15.25;81.04;96839.32;108778;1253;101613;-82
2023/07/31 01:45:49;;;;;;;3.50;3.10;;;;;;;15.24;81.30;96836.95;108788;1253;99832;-81
2023/07/31 01:48:17;;;;;;;6.40;3.20;;;;;;;15.24;81.30;96838.10;108733;1253;94283;-82
2023/07/31 01:50:44;;;;;;;6.60;3.30;;;;;;;15.24;81.35;96841.98;108787;1254;95122;-82
2023/07/31 01:53:13;;;;;;;4.70;2.70;;;;;;;15.22;81.33;96838.90;108790;1252;102322;-82
2023/07/31 01:55:40;;;;;;;6.50;2.90;;;;;;;15.21;81.34;96840.85;108823;1253;101675;-82
2023/07/31 01:58:08;;;;;;;5.00;3.30;;;;;;;15.22;81.71;96839.70;108787;1253;100150;-82
2023/07/31 02:00:36;;;;;;;9.30;3.10;;;;;;;15.25;81.77;96840.29;108800;1254;94176;-81
2023/07/31 02:03:04;;;;;;;4.00;2.70;;;;;;;15.28;81.95;96838.48;108776;1252;94631;-82
2023/07/31 02:05:32;;;;;;;9.80;2.90;;;;;;;15.28;81.90;96839.14;108748;1254;102038;-81
2023/07/31 02:08:00;;;;;;;6.80;3.30;;;;;;;15.28;81.79;96837.29;108794;1254;111086;-82
2023/07/31 02:10:27;;;;;;;5.80;3.00;;;;;;;15.29;81.94;96839.26;108786;1254;99870;-82
2023/07/31 02:12:55;;;;;;;5.30;3.30;;;;;;;15.30;82.13;96835.53;108757;1253;94207;-82
2023/07/31 02:15:22;;;;;;;4.50;3.60;;;;;;;15.31;82.11;96834.61;108837;1253;94513;-82
2023/07/31 02:17:50;;;;;;;5.60;3.40;;;;;;;15.32;82.23;96835.44;108853;1254;102252;-83
2023/07/31 02:20:18;;;;;;;8.40;3.00;;;;;;;15.35;82.31;96839.48;108735;1254;100553;-82
2023/07/31 02:22:45;;;;;;;5.40;3.10;;;;;;;15.38;82.34;96840.11;108790;1253;100281;-82
2023/07/31 02:25:13;;;;;;;10.30;3.00;;;;;;;15.40;82.26;96839.42;108739;1253;96089;-82
2023/07/31 02:27:41;;;;;;;5.50;3.40;;;;;;;15.40;82.26;96839.87;108733;1252;94495;-81
2023/07/31 02:30:09;;;;;;;7.10;3.00;;;;;;;15.41;82.27;96842.83;108789;1253;102109;-82
2023/07/31 02:32:37;;;;;;;6.10;3.20;;;;;;;15.43;82.30;96847.09;108775;1254;111222;-82
2023/07/31 02:35:05;;;;;;;4.40;3.20;;;;;;;15.44;82.44;96850.80;108763;1253;109430;-81
2023/07/31 02:37:33;;;;;;;3.90;3.00;;;;;;;15.47;82.53;96854.18;108741;1253;94381;-81
2023/07/31 02:40:00;;;;;;;5.00;3.10;;;;;;;15.49;82.46;96854.53;108732;1252;94668;-82
2023/07/31 02:42:28;;;;;;;7.20;3.50;;;;;;;15.50;82.39;96856.52;108783;1253;102429;-82
2023/07/31 02:44:56;;;;;;;5.10;3.70;;;;;;;15.49;82.54;96858.67;108792;1252;100333;-81
2023/07/31 02:47:24;;;;;;;5.20;3.00;;;;;;;15.45;82.71;96857.94;108725;1254;100315;-81
2023/07/31 02:49:51;;;;;;;12.20;3.80;;;;;;;15.44;82.63;96859.89;108732;1254;94239;-82
2023/07/31 02:52:19;;;;;;;5.50;3.20;;;;;;;15.43;82.73;96861.45;108766;1253;94564;-81
2023/07/31 02:54:47;;;;;;;5.40;3.20;;;;;;;15.40;82.62;96862.71;108791;1253;102371;-81
2023/07/31 02:57:16;;;;;;;10.60;4.00;;;;;;;15.36;82.98;96860.81;108777;1254;110420;-82
2023/07/31 02:59:43;;;;;;;7.30;3.70;;;;;;;15.37;83.21;96863.42;108758;1252;98974;-82
2023/07/31 03:02:12;;;;;;;5.30;3.80;;;;;;;15.41;83.34;96865.17;108790;1253;94173;-81
2023/07/31 03:04:40;;;;;;;5.30;3.60;;;;;;;15.42;83.26;96860.95;108784;1254;95733;-82
2023/07/31 03:07:07;;;;;;;5.80;3.70;;;;;;;15.41;83.13;96861.42;108802;1252;101206;-82
2023/07/31 03:09:35;;;;;;;5.80;4.20;;;;;;;15.44;83.29;96865.33;108768;1254;101858;-81
2023/07/31 03:12:03;;;;;;;7.90;3.90;;;;;;;15.43;83.32;96866.02;108758;1253;106685;-81
2023/07/31 03:14:30;;;;;;;7.30;4.10;;;;;;;15.45;83.40;96864.84;108749;1254;94218;-81
2023/07/31 03:16:58;;;;;;;8.20;4.40;;;;;;;15.45;83.40;96869.09;108793;1253;94637;-82
2023/07/31 03:19:26;;;;;;;5.40;4.00;;;;;;;15.48;83.63;96869.17;108755;1253;101777;-82
2023/07/31 03:21:54;;;;;;;11.40;4.10;;;;;;;15.51;83.60;96872.36;108766;1252;101696;-81
2023/07/31 03:24:21;;;;;;;7.00;4.00;;;;;;;15.50;83.56;96870.98;108715;1253;108656;-81
2023/07/31 03:26:49;;;;;;;5.80;4.00;;;;;;;15.50;83.61;96873.75;108740;1253;94170;-81
2023/07/31 03:29:16;;;;;;;8.80;4.20;;;;;;;15.52;83.71;96880.09;108794;1254;94490;-81
2023/07/31 03:31:44;;;;;;;9.20;4.10;;;;;;;15.52;83.66;96880.69;108794;1254;102486;-81
2023/07/31 03:34:12;;;;;;;6.40;3.90;;;;;;;15.51;83.73;96883.27;108717;1253;109401;-83
2023/07/31 03:36:39;;;;;;;4.30;3.80;;;;;;;15.48;83.75;96878.73;108736;1252;109038;-81
2023/07/31 03:39:07;;;;;;;5.50;4.20;;;;;;;15.49;84.03;96884.62;108709;1253;94242;-81
2023/07/31 03:41:35;;;;;;;5.70;4.00;;;;;;;15.53;84.04;96885.36;108756;1254;94641;-81
2023/07/31 03:44:03;;;;;;;10.00;3.90;;;;;;;15.54;84.00;96883.01;108788;1252;102347;-82
2023/07/31 03:46:31;;;;;;;7.50;4.30;;;;;;;15.51;83.98;96881.48;108799;1252;102167;-81
2023/07/31 03:48:58;;;;;;;9.80;4.80;;;;;;;15.49;83.97;96878.80;108725;1253;106709;-82
2023/07/31 03:51:26;;;;;;;7.10;4.70;;;;;;;15.51;84.21;96877.84;108734;1253;94178;-83
2023/07/31 03:53:54;;;;;;;7.20;4.30;;;;;;;15.47;84.09;96877.10;108750;1252;94570;-81
2023/07/31 03:56:22;;;;;;;5.40;4.10;;;;;;;15.44;84.21;96877.95;108758;1254;102438;-81
2023/07/31 03:58:50;;;;;;;7.10;4.20;;;;;;;15.45;84.48;96880.30;108773;1252;101659;-81
2023/07/31 04:01:19;;;;;;;5.70;4.30;;;;;;;15.45;84.77;96882.64;108743;1254;100095;-81
2023/07/31 04:03:47;;;;;;;7.00;4.40;;;;;;;15.49;84.98;96882.94;108758;1254;94185;-81
2023/07/31 04:06:17;;;;;;;7.50;3.80;;;;;;;15.56;84.97;96881.95;108777;1252;94511;-82
2023/07/31 04:08:45;;;;;;;6.60;4.10;;;;;;;15.61;85.17;96881.36;108780;1252;102287;-82
2023/07/31 04:11:13;;;;;;;6.30;4.20;;;;;;;15.67;85.01;96883.50;108785;1253;107717;-82
2023/07/31 04:13:41;;;;;;;5.40;3.40;;;;;;;15.74;84.97;96885.96;108757;1252;99714;-82
2023/07/31 04:16:08;;;;;;;3.70;3.10;;;;;;;15.80;84.95;96887.05;108707;1253;94283;-82
2023/07/31 04:18:36;;;;;;;6.10;3.70;;;;;;;15.85;84.82;96890.85;108817;1253;94587;-82
2023/07/31 04:21:04;;;;;;;8.20;3.60;;;;;;;15.92;85.04;96895.88;108752;1253;102373;-82
2023/07/31 04:23:32;;;;;;;5.50;3.70;;;;;;;15.96;85.14;96897.00;108776;1253;99965;-82
2023/07/31 04:25:59;;;;;;;4.90;3.40;;;;;;;16.00;85.23;96901.40;108774;1253;100162;-82
2023/07/31 04:28:27;;;;;;;7.40;3.60;;;;;;;16.03;85.41;96904.15;108730;1252;94179;-82
2023/07/31 04:30:55;;;;;;;6.40;5.40;;;;;;;16.05;85.54;96905.00;108778;1252;94172;-82
2023/07/31 04:33:22;;;;;;;11.00;7.90;;;;;;;16.08;85.68;96904.14;108798;1252;102371;-82
2023/07/31 04:35:54;;;;;;;12.00;8.30;;;;;;;16.12;85.60;96905.65;108767;1252;101465;-82
2023/07/31 04:38:22;;;;;;;10.10;8.20;;;;;;;16.15;85.54;96904.55;108713;1254;100133;-81
2023/07/31 04:40:50;;;;;;;8.40;7.00;;;;;;;16.16;85.50;96898.73;108740;1254;94225;-82
2023/07/31 04:43:17;;;;;;;7.20;6.50;;;;;;;16.21;85.57;96904.64;108726;1253;94569;-82
2023/07/31 04:45:49;;;;;;;9.30;6.00;;;;;;;16.26;85.64;96908.22;108749;1253;102331;-82
2023/07/31 04:48:17;;;;;;;11.30;5.60;;;;;;;16.27;85.70;96910.03;108804;1253;101602;-81
2023/07/31 04:50:45;;;;;;;8.80;5.90;;;;;;;16.27;85.72;96911.02;108764;1252;107714;-81
2023/07/31 04:53:12;;;;;;;6.20;5.00;;;;;;;16.30;85.70;96912.34;108713;1253;94245;-81
2023/07/31 04:55:40;;;;;;;5.40;4.50;;;;;;;16.36;85.57;96910.38;108767;1252;94560;-81
2023/07/31 04:58:08;;;;;;;6.40;3.90;;;;;;;16.40;85.77;96911.12;108768;1252;102586;-81
2023/07/31 05:00:35;;;;;;;5.80;4.40;;;;;;;16.42;85.84;96911.19;108755;1254;101642;-82
2023/07/31 05:03:03;;;;;;;4.70;4.00;;;;;;;16.46;85.83;96915.25;108726;1253;100183;-81
2023/07/31 05:05:31;;;;;;;5.60;4.00;;;;;;;16.51;85.74;96918.02;108750;1252;94206;-82
2023/07/31 05:07:59;;;;;;;4.60;4.00;;;;;;;16.56;85.65;96922.30;108794;1252;94862;-81
2023/07/31 05:10:26;;;;;;;6.00;4.20;;;;;;;16.60;85.73;96920.43;108758;1253;102525;-82
2023/07/31 05:12:54;;;;;;;5.00;3.40;;;;;;;16.62;85.57;96922.28;108682;1253;101762;-82
2023/07/31 05:15:22;;;;;;;4.30;3.30;;;;;;;16.64;85.52;96922.41;108746;1253;99000;-82
2023/07/31 05:17:50;;;;;;;5.40;3.30;;;;;;;16.66;85.53;96922.80;108764;1252;94459;-82
2023/07/31 05:20:17;;;;;;;5.90;3.40;;;;;;;16.69;85.42;96927.43;108750;1252;94179;-82
2023/07/31 05:22:45;;;;;;;5.70;3.70;;;;;;;16.69;85.47;96928.80;108805;1253;102330;-81
2023/07/31 05:25:13;;;;;;;4.40;3.40;;;;;;;16.70;85.39;96929.41;108792;1252;101602;-81
2023/07/31 05:27:40;;;;;;;5.20;3.40;;;;;;;16.72;85.16;96930.25;108752;1252;100113;-82
2023/07/31 05:30:09;;;;;;;5.80;3.50;;;;;;;16.77;85.46;96929.30;108731;1253;94147;-81
2023/07/31 05:32:36;;;;;;;3.80;3.20;;;;;;;16.81;85.37;96927.20;108785;1253;95679;-82
2023/07/31 05:35:04;;;;;;;4.20;3.60;;;;;;;16.87;85.42;96930.41;108777;1253;102020;-81
2023/07/31 05:37:32;;;;;;;4.30;3.70;;;;;;;16.91;85.51;96932.83;108767;1252;101550;-82
2023/07/31 05:40:00;;;;;;;5.40;3.60;;;;;;;16.97;85.44;96936.30;108704;1253;100065;-82
2023/07/31 05:42:28;;;;;;;4.30;3.00;;;;;;;17.01;85.22;96937.27;108749;1252;94171;-82
2023/07/31 05:44:55;;;;;;;5.40;3.20;;;;;;;17.04;84.95;96935.85;108818;1252;94269;-82
2023/07/31 05:47:23;;;;;;;2.70;2.50;;;;;;;17.07;84.57;96935.92;108812;1252;102622;-81
2023/07/31 05:49:52;;;;;;;3.50;3.20;;;;;;;17.10;84.43;96933.82;108755;1252;101599;-82
2023/07/31 05:52:20;;;;;;;4.60;3.40;;;;;;;17.13;84.33;96932.32;108707;1253;106604;-82
2023/07/31 05:54:48;;;;;;;4.50;2.90;;;;;;;17.16;84.57;96933.02;108754;1252;94244;-82
2023/07/31 05:57:15;;;;;;;3.40;2.60;;;;;;;17.18;84.27;96934.46;108748;1252;94480;-82
2023/07/31 05:59:43;;;;;;;3.20;2.30;;;;;;;17.21;83.91;96936.00;108731;1253;101244;-82
2023/07/31 06:02:11;;;;;;;4.50;2.60;;;;;;;17.24;83.81;96936.20;108764;1253;101671;-82
2023/07/31 06:04:39;;;;;;;5.10;2.70;;;;;;;17.28;83.66;96940.19;108701;1253;100130;-82
2023/07/31 06:07:06;;;;;;;4.20;2.60;;;;;;;17.30;83.64;96940.90;108759;1252;94231;-82
2023/07/31 06:09:34;;;;;;;3.50;2.60;;;;;;;17.31;83.37;96947.13;108773;1252;95752;-82
2023/07/31 06:12:02;;;;;;;4.40;3.30;;;;;;;17.33;83.06;96949.00;108772;1253;102275;-82
2023/07/31 06:14:29;;;;;;;4.40;3.30;;;;;;;17.36;82.90;96947.71;108717;1252;101596;-82
2023/07/31 06:16:57;;;;;;;5.00;2.70;;;;;;;17.39;82.57;96943.63;108772;1252;100179;-82
2023/07/31 06:19:24;;;;;;;4.30;3.50;;;;;;;17.39;82.52;96940.79;108686;1253;94265;-82
2023/07/31 06:21:52;;;;;;;4.10;3.10;;;;;;;17.38;82.27;96946.86;108766;1252;94574;-82
2023/07/31 06:24:20;;;;;;;3.80;3.00;;;;;;;17.40;82.33;96945.20;108813;1252;102351;-81
2023/07/31 06:26:48;;;;;;;3.70;3.10;;;;;;;17.42;82.13;96942.44;108743;1252;101720;-82
2023/07/31 06:29:15;;;;;;;3.90;3.00;;;;;;;17.44;81.95;96937.92;108752;1252;99918;-82
2023/07/31 06:31:43;;;;;;;7.20;3.10;;;;;;;17.47;82.12;96939.52;108719;1253;94196;-82
2023/07/31 06:34:11;;;;;;;6.40;3.20;;;;;;;17.52;82.29;96939.64;108764;1252;94845;-82
2023/07/31 06:36:39;;;;;;;5.00;2.70;;;;;;;17.55;82.13;96936.92;108853;1252;102167;-82
2023/07/31 06:39:06;;;;;;;4.20;3.10;;;;;;;17.59;81.97;96937.45;108849;1252;100170;-81
2023/07/31 06:41:35;;;;;;;3.30;2.90;;;;;;;17.66;81.52;96938.02;108753;1252;100123;-82
2023/07/31 06:44:03;;;;;;;5.40;3.00;;;;;;;17.69;81.49;96935.59;108745;1253;94149;-81
2023/07/31 06:46:31;;;;;;;5.10;3.20;;;;;;;17.74;81.12;96930.91;108848;1252;94555;-82
2023/07/31 06:48:58;;;;;;;3.30;3.00;;;;;;;17.78;81.15;96928.79;108775;1252;102242;-83
2023/07/31 06:51:26;;;;;;;4.30;2.70;;;;;;;17.80;80.86;96927.38;108772;1252;101702;-82
2023/07/31 06:53:54;;;;;;;3.00;2.70;;;;;;;17.84;80.92;96928.33;108720;1252;99277;-82
2023/07/31 06:56:22;;;;;;;3.60;3.30;;;;;;;17.88;80.21;96929.27;108743;1252;94176;-82
2023/07/31 06:58:50;;;;;;;4.90;3.20;;;;;;;17.95;79.88;96929.98;108828;1252;94549;-80
2023/07/31 07:01:18;;;;;;;4.00;2.70;;;;;;;18.04;79.72;96928.20;108702;1252;102181;-78
2023/07/31 07:03:45;;;;;;;3.00;2.50;;;;;;;18.10;79.45;96926.58;108810;1252;101395;-82
2023/07/31 07:06:13;;;;;;;3.20;2.80;;;;;;;18.16;79.30;96928.83;108742;1252;99911;-82
2023/07/31 07:08:41;;;;;;;3.30;2.60;;;;;;;18.26;79.54;96931.13;108756;1252;96093;-81
2023/07/31 07:11:09;;;;;;;3.20;2.90;;;;;;;18.32;79.37;96924.15;108763;1253;94596;-80
2023/07/31 07:13:37;;;;;;;3.90;2.60;;;;;;;18.38;78.81;96920.98;108767;1256;102007;-83
2023/07/31 07:16:05;;;;;;;3.60;2.70;;;;;;;18.44;78.32;96923.61;108709;1252;101456;-82
2023/07/31 07:18:33;;;;;;;4.60;2.70;;;;;;;18.50;77.91;96925.18;108753;1252;100139;-81
2023/07/31 07:21:02;;;;;;;5.00;2.80;;;;;;;18.55;77.81;96927.77;108783;1252;94417;-85
2023/07/31 07:23:30;;;;;;;3.80;2.90;;;;;;;18.58;77.47;96927.69;108754;1252;94117;-80
2023/07/31 07:25:57;;;;;;;3.00;2.70;;;;;;;18.62;77.28;96929.04;108734;1252;102143;-80
2023/07/31 07:28:25;;;;;;;4.50;2.70;;;;;;;18.67;76.88;96928.93;108815;1252;101318;-83
2023/07/31 07:30:54;;;;;;;4.10;3.00;;;;;;;18.72;76.98;96931.88;108764;1252;99845;-81
2023/07/31 07:33:21;;;;;;;4.10;2.70;;;;;;;18.77;76.65;96935.21;108753;1252;94306;-81
2023/07/31 07:35:49;;;;;;;2.70;2.50;;;;;;;18.79;76.48;96935.64;108761;1252;94662;-81
2023/07/31 07:38:19;;;;;;;5.30;3.10;;;;;;;18.78;76.12;96939.31;108790;1252;102209;-80
2023/07/31 07:40:50;;;;;;;3.90;2.50;;;;;;;18.77;76.07;96942.64;108738;1252;101428;-79
2023/07/31 07:43:17;;;;;;;4.30;2.40;;;;;;;18.77;75.89;96939.75;108783;1252;99984;-80
2023/07/31 07:45:45;;;;;;;3.60;2.70;;;;;;;18.78;75.59;96941.50;108725;1252;94209;-81
2023/07/31 07:48:13;;;;;;;3.50;3.10;;;;;;;18.83;75.87;96946.95;108661;1252;94714;-79
2023/07/31 07:50:43;;;;;;;7.10;2.60;;;;;;;18.87;75.71;96950.56;108746;1252;102332;-82
2023/07/31 07:53:11;;;;;;;5.20;3.30;;;;;;;18.90;75.62;96954.23;108456;1252;160560;-82
2023/07/31 07:55:39;;;;;;;3.80;2.90;;;;;;;18.93;75.72;96951.55;108643;1252;97943;-82
2023/07/31 07:58:07;;;;;;;4.80;2.70;;;;;;;18.95;75.51;96955.15;108590;1252;94294;-81
2023/07/31 08:00:34;;;;;;;5.10;3.30;;;;;;;18.98;75.51;96951.59;108699;1252;94626;-81
2023/07/31 08:03:02;;;;;;;5.00;3.60;;;;;;;18.93;75.52;96952.20;108687;1252;101282;-82
2023/07/31 08:05:33;;;;;;;6.70;3.90;;;;;;;18.88;75.16;96956.36;108725;1252;99999;-81
2023/07/31 08:08:01;;;;;;;6.80;4.20;;;;;;;18.81;74.74;96956.81;108670;1252;100342;-81
2023/07/31 08:10:29;;;;;;;4.20;3.70;;;;;;;18.82;74.67;96958.73;108787;1252;94819;-82
2023/07/31 08:12:57;;;;;;;4.30;3.70;;;;;;;18.79;74.48;96960.91;108827;1252;94224;-81
2023/07/31 08:15:25;;;;;;;5.30;4.10;;;;;;;18.78;74.31;96962.71;108764;1252;102180;-82
2023/07/31 08:17:53;;;;;;;5.50;3.90;;;;;;;18.79;74.36;96963.48;108774;1252;100391;-81
2023/07/31 08:20:20;;;;;;;5.60;4.10;;;;;;;18.80;74.27;96965.30;108781;1252;99039;-82
2023/07/31 08:22:48;;;;;;;5.00;3.80;;;;;;;18.79;74.62;96968.02;108770;1252;94192;-81
2023/07/31 08:25:16;;;;;;;8.50;4.40;;;;;;;18.81;75.03;96972.02;108851;1252;94300;-81
2023/07/31 08:27:45;;;;;;;5.80;4.00;;;;;;;18.87;74.72;96977.36;108724;1252;102267;-82
2023/07/31 08:30:13;;;;;;;9.60;3.40;;;;;;;18.91;74.41;96975.84;108795;1253;101311;-82
2023/07/31 08:32:41;;;;;;;4.60;3.20;;;;;;;18.90;74.26;96976.88;108750;1252;99665;-82
2023/07/31 08:35:09;;;;;;;5.20;3.30;;;;;;;18.90;74.11;96977.31;108729;1252;94225;-82
2023/07/31 08:37:37;;;;;;;3.60;2.90;;;;;;;18.88;73.87;96976.11;108797;1252;94950;-80
2023/07/31 08:40:05;;;;;;;7.80;3.10;;;;;;;18.89;73.37;96979.55;108784;1253;102256;-81
2023/07/31 08:42:33;;;;;;;5.00;2.90;;;;;;;18.93;72.81;96977.15;108385;1253;101327;-80
2023/07/31 08:45:03;;;;;;;6.90;4.30;;;;;;;19.01;73.06;96981.39;108758;1252;99780;-81
2023/07/31 08:47:32;;;;;;;5.40;3.70;;;;;;;19.11;73.15;96982.98;108685;1252;95302;-81
2023/07/31 08:50:01;;;;;;;6.40;3.50;;;;;;;19.23;73.10;96985.14;108779;1252;94478;-79
2023/07/31 08:52:29;;;;;;;6.00;4.10;;;;;;;19.41;72.67;96983.90;108691;1253;102057;-79
2023/07/31 08:54:57;;;;;;;5.30;3.40;;;;;;;19.54;72.12;96983.89;108859;1252;99467;-80
2023/07/31 08:57:25;;;;;;;5.50;3.30;;;;;;;19.65;71.70;96984.40;108740;1252;98893;-80
2023/07/31 08:59:53;;;;;;;6.10;4.10;;;;;;;19.74;71.39;96984.74;108783;1252;94144;-80
2023/07/31 09:02:22;;;;;;;5.70;3.50;;;;;;;19.82;71.27;96986.03;108783;1252;94789;-81
2023/07/31 09:04:50;;;;;;;5.20;3.80;;;;;;;19.88;70.46;96985.68;108784;1252;101129;-81
2023/07/31 09:07:18;;;;;;;7.20;3.80;;;;;;;19.89;70.50;96982.40;108789;1252;101100;-80
2023/07/31 09:09:46;;;;;;;6.80;3.90;;;;;;;19.90;70.24;96981.40;108785;1252;99916;-80
2023/07/31 09:12:14;;;;;;;11.40;3.60;;;;;;;19.98;70.14;96982.02;108724;1252;94232;-79
2023/07/31 09:14:45;;;;;;;4.90;3.20;;;;;;;20.06;69.69;96983.89;108747;1252;94463;-80
2023/07/31 09:17:12;;;;;;;4.30;3.30;;;;;;;20.10;68.88;96986.66;108741;1252;101913;-80
2023/07/31 09:19:40;;;;;;;5.00;3.80;;;;;;;20.17;68.44;96986.45;108733;1252;101317;-80
2023/07/31 09:22:08;;;;;;;16.10;4.40;;;;;;;20.22;68.41;96986.77;108770;1252;99767;-80
2023/07/31 10:29:25;;;;;;;5.20;2.40;;;;;;;25.32;57.47;96935.15;105400;1264;97915;-83
2023/07/31 10:31:52;;;;;;;5.80;2.60;;;;;;;25.61;56.64;96933.14;106687;1255;101568;-81
2023/07/31 10:34:19;;;;;;;4.30;3.00;;;;;;;25.88;55.52;96927.95;106493;1249;96139;-82
2023/07/31 10:36:45;;;;;;;5.20;2.20;;;;;;;25.81;55.27;96927.45;106555;1254;97296;-82
2023/07/31 10:39:35;;;;;;;7.50;3.00;;;;;;;25.85;55.54;96925.98;106609;1255;95923;-82
2023/07/31 10:42:13;;;;;;;5.70;2.80;;;;;;;25.96;54.80;96919.48;106817;1247;102336;-80
2023/07/31 10:44:46;;;;;;;3.10;2.40;;;;;;;26.11;54.39;96916.80;106437;1248;100141;-81
2023/07/31 10:47:16;;;;;;;3.20;2.50;;;;;;;26.41;54.45;96907.97;106819;1250;96856;-82
2023/07/31 10:49:46;;;;;;;5.40;3.00;;;;;;;26.43;53.06;96905.99;106807;1256;95874;-82
2023/07/31 10:52:13;;;;;;;4.00;2.50;;;;;;;26.26;53.08;96904.46;106995;1251;101393;-82
2023/07/31 10:54:39;;;;;;;5.30;2.60;;;;;;;26.17;53.09;96904.16;107356;1248;96818;-81
2023/07/31 10:57:20;;;;;;;3.70;2.70;;;;;;;26.11;52.70;96905.19;107274;1248;95847;-81
2023/07/31 10:59:48;;;;;;;4.30;2.50;;;;;;;26.03;53.10;96902.90;107360;1243;96853;-80
2023/07/31 11:02:40;;;;;;;3.90;2.60;;;;;;;26.01;52.96;96897.20;107248;1242;96036;-81
2023/07/31 11:05:09;;;;;;;5.50;2.60;;;;;;;25.94;52.48;96891.50;107385;1242;101276;-81
2023/07/31 11:07:50;;;;;;;3.90;2.70;;;;;;;25.95;52.25;96891.60;107112;1248;99935;-81
2023/07/31 11:10:18;;;;;;;6.40;2.90;;;;;;;25.69;52.13;96886.59;107085;1249;100656;-81
2023/07/31 11:12:47;;;;;;;5.60;2.50;;;;;;;25.59;52.52;96879.42;107529;1241;95984;-81
2023/07/31 11:15:14;;;;;;;5.60;2.70;;;;;;;25.62;52.40;96877.17;107660;1252;96778;-81
2023/07/31 11:17:41;;;;;;;5.00;2.60;;;;;;;25.72;51.67;96878.56;107677;1244;96373;-81
2023/07/31 11:20:08;;;;;;;5.00;2.90;;;;;;;25.55;50.70;96875.44;107529;1250;96953;-81
2023/07/31 11:22:35;;;;;;;2.90;2.50;;;;;;;25.30;50.96;96869.10;107604;1242;96767;-81
2023/07/31 11:25:04;;;;;;;2.60;2.20;;;;;;;25.35;51.86;96870.91;107376;1245;96090;-81
2023/07/31 11:27:30;;;;;;;4.90;2.60;;;;;;;25.64;51.28;96871.88;107497;1242;96843;-80
2023/07/31 11:30:02;;;;;;;3.10;2.80;;;;;;;25.86;51.07;96868.52;107645;1242;95900;-81
2023/07/31 11:32:28;;;;;;;4.00;2.90;;;;;;;25.75;49.84;96865.92;107613;1249;100148;-81
2023/07/31 11:34:55;;;;;;;5.80;2.90;;;;;;;25.27;49.84;96862.41;107575;1241;95809;-81
2023/07/31 11:37:21;;;;;;;4.60;2.70;;;;;;;24.99;50.97;96861.08;107619;1242;96284;-81
2023/07/31 11:40:01;;;;;;;4.70;2.60;;;;;;;24.89;51.34;96857.35;107651;1237;96778;-81
2023/07/31 11:42:27;;;;;;;3.90;2.50;;;;;;;24.82;51.20;96857.21;108138;1240;101739;-81
2023/07/31 11:44:54;;;;;;;5.00;2.80;;;;;;;24.82;51.40;96858.31;108221;1239;95833;-81
2023/07/31 11:47:20;;;;;;;5.50;3.10;;;;;;;24.79;51.51;96855.07;108179;1239;96837;-83
2023/07/31 11:49:48;;;;;;;4.00;2.50;;;;;;;24.65;51.56;96853.10;108127;1241;97538;-81
2023/07/31 11:52:15;;;;;;;2.70;2.40;;;;;;;24.40;51.93;96854.46;108272;1239;102494;-81
2023/07/31 11:54:41;;;;;;;3.70;2.70;;;;;;;24.30;52.43;96855.42;107865;1239;95817;-81
2023/07/31 11:57:08;;;;;;;6.30;2.50;;;;;;;24.14;51.62;96851.87;107925;1243;95827;-80
2023/07/31 11:59:35;;;;;;;6.10;2.90;;;;;;;24.07;52.04;96851.52;107875;1246;96952;-80
2023/07/31 12:02:02;;;;;;;3.70;2.60;;;;;;;24.16;52.09;96851.56;107935;1241;95871;-81
2023/07/31 12:04:28;;;;;;;3.40;2.60;;;;;;;24.41;52.57;96850.30;107828;1239;100392;-81
2023/07/31 12:06:55;;;;;;;3.30;2.40;;;;;;;24.68;52.85;96847.55;107910;1236;96804;-82
2023/07/31 12:09:21;;;;;;;3.50;2.60;;;;;;;24.79;52.62;96849.16;107919;1249;95833;-81
2023/07/31 12:11:48;;;;;;;2.90;2.60;;;;;;;24.70;51.78;96845.68;108068;1242;95812;-81
2023/07/31 12:14:25;;;;;;;2.60;2.30;;;;;;;24.61;51.40;96843.06;107761;1242;100056;-80
2023/07/31 12:17:00;;;;;;;5.70;2.50;;;;;;;24.61;50.70;96842.19;107774;1242;95835;-81
2023/07/31 12:19:29;;;;;;;2.90;2.40;;;;;;;24.61;50.52;96837.16;107814;1239;95954;-81
2023/07/31 12:21:57;;;;;;;4.90;2.60;;;;;;;24.61;50.66;96834.56;107910;1251;101202;-81
2023/07/31 12:24:23;;;;;;;4.70;2.60;;;;;;;24.59;50.73;96830.48;107903;1248;101587;-80
2023/07/31 12:26:51;;;;;;;5.00;2.90;;;;;;;24.67;50.32;96821.08;107833;1243;95836;-80
2023/07/31 12:29:17;;;;;;;4.40;2.20;;;;;;;24.92;50.50;96815.35;107665;1240;95834;-81
2023/07/31 12:31:44;;;;;;;3.00;2.20;;;;;;;25.24;50.17;96814.81;107950;1236;96745;-79